LFKC/CLY METAR and TAF weather

Enter ICAO airport designator
Station Type Date Time Source
LFKC METAR 2020/08/07 11:30 UTC NOAA

LFKC 071130Z AUTO 35016KT 270V050 CAVOK 31/19 Q1016 TEMPO 01015G25KT


Station Type Date Time Source
LFKC Decoded METAR 2020/08/07 11:30 UTC NOAA

Calvi, France (LFKC) 42-32N 008-48E 58M
Aug 07, 2020 - 07:30 AM EDT / 2020.08.07 1130 UTC
Wind: from the N (350 degrees) at 18 MPH (16 KT) (direction variable):0
Visibility: greater than 7 mile(s):0
Temperature: 87 F (31 C)
Dew Point: 66 F (19 C)
Relative Humidity: 48%
Pressure (altimeter): 30.00 in. Hg (1016 hPa)
ob: LFKC 071130Z AUTO 35016KT 270V050 CAVOK 31/19 Q1016 TEMPO 01015G25KT
cycle: 11

Station Type Date Time Source
LFKC TAF 2020/08/07 09:21 UTC NOAA

TAF LFKC 070800Z 0709/0809 01015KT CAVOK TX32/0712Z TN20/0800Z
TEMPO 0711/0714 01015G25KT
BECMG 0718/0720 18003KT
BECMG 0808/0809 33010KT

Example: see airport list